sensor_id;sensor_type;location;lat;lon;timestamp;P1;durP1;ratioP1;P2;durP2;ratioP2
13228;SDS011;6680;53.220;10.402;2022-11-20T00:00:16;5.50;;;4.43;;
13228;SDS011;6680;53.220;10.402;2022-11-20T00:02:42;7.77;;;4.10;;
13228;SDS011;6680;53.220;10.402;2022-11-20T00:05:09;13.63;;;4.10;;
13228;SDS011;6680;53.220;10.402;2022-11-20T00:07:36;5.07;;;3.90;;
13228;SDS011;6680;53.220;10.402;2022-11-20T00:10:03;6.07;;;4.57;;
13228;SDS011;6680;53.220;10.402;2022-11-20T00:12:30;4.33;;;3.47;;
13228;SDS011;6680;53.220;10.402;2022-11-20T00:14:58;6.23;;;4.37;;
13228;SDS011;6680;53.220;10.402;2022-11-20T00:17:25;5.77;;;3.77;;
13228;SDS011;6680;53.220;10.402;2022-11-20T00:19:52;5.87;;;4.23;;
13228;SDS011;6680;53.220;10.402;2022-11-20T00:22:19;5.40;;;4.30;;
13228;SDS011;6680;53.220;10.402;2022-11-20T00:24:46;7.07;;;4.73;;
13228;SDS011;6680;53.220;10.402;2022-11-20T00:27:13;6.43;;;4.77;;
13228;SDS011;6680;53.220;10.402;2022-11-20T00:29:39;6.97;;;4.93;;
13228;SDS011;6680;53.220;10.402;2022-11-20T00:32:07;7.60;;;5.33;;
13228;SDS011;6680;53.220;10.402;2022-11-20T00:34:34;6.40;;;4.70;;
13228;SDS011;6680;53.220;10.402;2022-11-20T00:37:01;6.93;;;4.73;;
13228;SDS011;6680;53.220;10.402;2022-11-20T00:39:27;7.70;;;5.03;;
13228;SDS011;6680;53.220;10.402;2022-11-20T00:41:54;6.13;;;4.57;;
13228;SDS011;6680;53.220;10.402;2022-11-20T00:44:21;10.17;;;4.87;;
13228;SDS011;6680;53.220;10.402;2022-11-20T00:46:48;6.60;;;4.37;;
13228;SDS011;6680;53.220;10.402;2022-11-20T00:49:16;8.67;;;4.43;;
13228;SDS011;6680;53.220;10.402;2022-11-20T00:51:42;10.17;;;5.87;;
13228;SDS011;6680;53.220;10.402;2022-11-20T00:54:09;6.57;;;4.67;;
13228;SDS011;6680;53.220;10.402;2022-11-20T00:56:36;7.10;;;5.23;;
13228;SDS011;6680;53.220;10.402;2022-11-20T00:59:02;7.53;;;4.93;;
13228;SDS011;6680;53.220;10.402;2022-11-20T01:01:29;6.93;;;5.00;;
13228;SDS011;6680;53.220;10.402;2022-11-20T01:03:56;8.60;;;4.80;;
13228;SDS011;6680;53.220;10.402;2022-11-20T01:06:27;7.10;;;4.50;;
13228;SDS011;6680;53.220;10.402;2022-11-20T01:08:55;6.07;;;4.97;;
13228;SDS011;6680;53.220;10.402;2022-11-20T01:11:23;6.50;;;5.37;;
13228;SDS011;6680;53.220;10.402;2022-11-20T01:13:51;6.87;;;5.13;;
13228;SDS011;6680;53.220;10.402;2022-11-20T01:16:20;6.87;;;4.97;;
13228;SDS011;6680;53.220;10.402;2022-11-20T01:18:49;5.47;;;4.33;;
13228;SDS011;6680;53.220;10.402;2022-11-20T01:21:18;7.40;;;5.30;;
13228;SDS011;6680;53.220;10.402;2022-11-20T01:23:47;7.07;;;4.10;;
13228;SDS011;6680;53.220;10.402;2022-11-20T01:26:16;5.90;;;5.07;;
13228;SDS011;6680;53.220;10.402;2022-11-20T01:28:44;8.07;;;5.23;;
13228;SDS011;6680;53.220;10.402;2022-11-20T01:31:11;6.87;;;4.53;;
13228;SDS011;6680;53.220;10.402;2022-11-20T01:33:38;5.67;;;5.07;;
13228;SDS011;6680;53.220;10.402;2022-11-20T01:36:06;7.93;;;4.87;;
13228;SDS011;6680;53.220;10.402;2022-11-20T01:38:34;9.80;;;5.43;;
13228;SDS011;6680;53.220;10.402;2022-11-20T01:41:02;6.23;;;5.20;;
13228;SDS011;6680;53.220;10.402;2022-11-20T01:43:28;7.30;;;5.10;;
13228;SDS011;6680;53.220;10.402;2022-11-20T01:46:05;7.10;;;4.20;;
13228;SDS011;6680;53.220;10.402;2022-11-20T01:48:43;9.10;;;4.57;;
13228;SDS011;6680;53.220;10.402;2022-11-20T01:51:16;5.17;;;3.47;;
13228;SDS011;6680;53.220;10.402;2022-11-20T01:53:47;7.03;;;5.27;;
13228;SDS011;6680;53.220;10.402;2022-11-20T01:56:15;7.23;;;4.83;;
13228;SDS011;6680;53.220;10.402;2022-11-20T01:58:43;6.83;;;4.50;;
13228;SDS011;6680;53.220;10.402;2022-11-20T02:01:13;5.43;;;3.57;;
13228;SDS011;6680;53.220;10.402;2022-11-20T02:03:40;6.47;;;4.77;;
13228;SDS011;6680;53.220;10.402;2022-11-20T02:06:10;5.17;;;4.30;;
13228;SDS011;6680;53.220;10.402;2022-11-20T02:08:40;8.30;;;4.93;;
13228;SDS011;6680;53.220;10.402;2022-11-20T02:11:07;6.37;;;4.63;;
13228;SDS011;6680;53.220;10.402;2022-11-20T02:13:35;6.70;;;5.10;;
13228;SDS011;6680;53.220;10.402;2022-11-20T02:16:17;7.37;;;5.10;;
13228;SDS011;6680;53.220;10.402;2022-11-20T02:18:47;6.07;;;4.07;;
13228;SDS011;6680;53.220;10.402;2022-11-20T02:21:20;6.83;;;4.77;;
13228;SDS011;6680;53.220;10.402;2022-11-20T02:23:55;5.93;;;4.57;;
13228;SDS011;6680;53.220;10.402;2022-11-20T02:26:35;5.37;;;4.10;;
13228;SDS011;6680;53.220;10.402;2022-11-20T02:29:07;6.30;;;4.77;;
13228;SDS011;6680;53.220;10.402;2022-11-20T02:31:35;6.87;;;5.53;;
13228;SDS011;6680;53.220;10.402;2022-11-20T02:34:04;6.80;;;4.53;;
13228;SDS011;6680;53.220;10.402;2022-11-20T02:36:30;8.30;;;4.50;;
13228;SDS011;6680;53.220;10.402;2022-11-20T02:39:01;7.03;;;5.00;;
13228;SDS011;6680;53.220;10.402;2022-11-20T02:41:31;4.70;;;4.20;;
13228;SDS011;6680;53.220;10.402;2022-11-20T02:43:59;7.73;;;5.07;;
13228;SDS011;6680;53.220;10.402;2022-11-20T02:46:26;7.03;;;5.17;;
13228;SDS011;6680;53.220;10.402;2022-11-20T02:48:53;6.10;;;4.40;;
13228;SDS011;6680;53.220;10.402;2022-11-20T02:51:19;6.00;;;4.90;;
13228;SDS011;6680;53.220;10.402;2022-11-20T02:53:46;5.30;;;3.90;;
13228;SDS011;6680;53.220;10.402;2022-11-20T02:56:14;5.37;;;4.10;;
13228;SDS011;6680;53.220;10.402;2022-11-20T02:58:41;5.50;;;4.60;;
13228;SDS011;6680;53.220;10.402;2022-11-20T03:01:08;7.33;;;5.30;;
13228;SDS011;6680;53.220;10.402;2022-11-20T03:03:35;9.13;;;5.50;;
13228;SDS011;6680;53.220;10.402;2022-11-20T03:06:02;7.70;;;4.53;;
13228;SDS011;6680;53.220;10.402;2022-11-20T03:08:29;6.53;;;4.77;;
13228;SDS011;6680;53.220;10.402;2022-11-20T03:10:55;7.93;;;4.70;;
13228;SDS011;6680;53.220;10.402;2022-11-20T03:13:24;6.50;;;5.00;;
13228;SDS011;6680;53.220;10.402;2022-11-20T03:15:51;6.03;;;4.43;;
13228;SDS011;6680;53.220;10.402;2022-11-20T03:18:17;8.40;;;4.97;;
13228;SDS011;6680;53.220;10.402;2022-11-20T03:20:45;8.07;;;4.57;;
13228;SDS011;6680;53.220;10.402;2022-11-20T03:23:11;5.50;;;4.53;;
13228;SDS011;6680;53.220;10.402;2022-11-20T03:25:38;5.37;;;4.50;;
13228;SDS011;6680;53.220;10.402;2022-11-20T03:28:05;8.50;;;4.73;;
13228;SDS011;6680;53.220;10.402;2022-11-20T03:30:33;6.57;;;4.67;;
13228;SDS011;6680;53.220;10.402;2022-11-20T03:33:00;7.17;;;4.80;;
13228;SDS011;6680;53.220;10.402;2022-11-20T03:35:27;6.07;;;4.03;;
13228;SDS011;6680;53.220;10.402;2022-11-20T03:37:54;10.63;;;4.73;;
13228;SDS011;6680;53.220;10.402;2022-11-20T03:40:20;6.87;;;5.07;;
13228;SDS011;6680;53.220;10.402;2022-11-20T03:42:47;7.93;;;4.77;;
13228;SDS011;6680;53.220;10.402;2022-11-20T03:45:14;6.47;;;4.50;;
13228;SDS011;6680;53.220;10.402;2022-11-20T03:47:44;5.93;;;4.43;;
13228;SDS011;6680;53.220;10.402;2022-11-20T03:50:12;7.43;;;4.93;;
13228;SDS011;6680;53.220;10.402;2022-11-20T03:52:39;7.07;;;5.10;;
13228;SDS011;6680;53.220;10.402;2022-11-20T03:55:07;7.27;;;4.27;;
13228;SDS011;6680;53.220;10.402;2022-11-20T03:57:34;6.57;;;4.00;;
13228;SDS011;6680;53.220;10.402;2022-11-20T04:00:00;5.10;;;3.67;;
13228;SDS011;6680;53.220;10.402;2022-11-20T04:02:27;4.70;;;4.07;;
13228;SDS011;6680;53.220;10.402;2022-11-20T04:04:55;6.63;;;4.20;;
13228;SDS011;6680;53.220;10.402;2022-11-20T04:07:22;5.33;;;3.93;;
13228;SDS011;6680;53.220;10.402;2022-11-20T04:09:49;5.90;;;4.47;;
13228;SDS011;6680;53.220;10.402;2022-11-20T04:12:15;3.80;;;3.40;;
13228;SDS011;6680;53.220;10.402;2022-11-20T04:14:42;6.20;;;4.23;;
13228;SDS011;6680;53.220;10.402;2022-11-20T04:17:09;4.20;;;3.67;;
13228;SDS011;6680;53.220;10.402;2022-11-20T04:19:35;6.43;;;4.43;;
13228;SDS011;6680;53.220;10.402;2022-11-20T04:22:03;6.53;;;4.47;;
13228;SDS011;6680;53.220;10.402;2022-11-20T04:24:30;5.73;;;3.53;;
13228;SDS011;6680;53.220;10.402;2022-11-20T04:26:57;8.90;;;4.03;;
13228;SDS011;6680;53.220;10.402;2022-11-20T04:29:23;5.33;;;3.83;;
13228;SDS011;6680;53.220;10.402;2022-11-20T04:31:50;5.17;;;3.57;;
13228;SDS011;6680;53.220;10.402;2022-11-20T04:34:17;5.30;;;3.97;;
13228;SDS011;6680;53.220;10.402;2022-11-20T04:36:43;7.43;;;4.07;;
13228;SDS011;6680;53.220;10.402;2022-11-20T04:39:12;7.17;;;3.80;;
13228;SDS011;6680;53.220;10.402;2022-11-20T04:41:40;7.33;;;4.27;;
13228;SDS011;6680;53.220;10.402;2022-11-20T04:44:07;4.73;;;3.60;;
13228;SDS011;6680;53.220;10.402;2022-11-20T04:46:34;6.20;;;4.17;;
13228;SDS011;6680;53.220;10.402;2022-11-20T04:49:02;6.83;;;4.30;;
13228;SDS011;6680;53.220;10.402;2022-11-20T04:51:29;8.70;;;4.77;;
13228;SDS011;6680;53.220;10.402;2022-11-20T04:53:56;5.80;;;4.73;;
13228;SDS011;6680;53.220;10.402;2022-11-20T04:56:24;5.07;;;3.90;;
13228;SDS011;6680;53.220;10.402;2022-11-20T04:58:51;4.40;;;4.00;;
13228;SDS011;6680;53.220;10.402;2022-11-20T05:01:18;7.50;;;4.57;;
13228;SDS011;6680;53.220;10.402;2022-11-20T05:03:46;5.03;;;3.93;;
13228;SDS011;6680;53.220;10.402;2022-11-20T05:06:14;5.60;;;4.50;;
13228;SDS011;6680;53.220;10.402;2022-11-20T05:08:42;7.63;;;3.97;;
13228;SDS011;6680;53.220;10.402;2022-11-20T05:11:10;6.77;;;4.80;;
13228;SDS011;6680;53.220;10.402;2022-11-20T05:13:39;7.23;;;5.03;;
13228;SDS011;6680;53.220;10.402;2022-11-20T05:16:06;6.43;;;4.27;;
13228;SDS011;6680;53.220;10.402;2022-11-20T05:18:34;7.37;;;4.10;;
13228;SDS011;6680;53.220;10.402;2022-11-20T05:21:01;7.30;;;4.60;;
13228;SDS011;6680;53.220;10.402;2022-11-20T05:23:29;5.97;;;4.67;;
13228;SDS011;6680;53.220;10.402;2022-11-20T05:25:56;6.77;;;5.00;;
13228;SDS011;6680;53.220;10.402;2022-11-20T05:28:24;7.20;;;4.97;;
13228;SDS011;6680;53.220;10.402;2022-11-20T05:30:53;6.50;;;4.73;;
13228;SDS011;6680;53.220;10.402;2022-11-20T05:33:19;6.73;;;4.40;;
13228;SDS011;6680;53.220;10.402;2022-11-20T05:35:46;5.10;;;4.00;;
13228;SDS011;6680;53.220;10.402;2022-11-20T05:38:14;7.77;;;4.23;;
13228;SDS011;6680;53.220;10.402;2022-11-20T05:40:40;6.37;;;4.83;;
13228;SDS011;6680;53.220;10.402;2022-11-20T05:43:07;7.43;;;5.67;;
13228;SDS011;6680;53.220;10.402;2022-11-20T05:45:34;7.87;;;5.17;;
13228;SDS011;6680;53.220;10.402;2022-11-20T05:48:02;7.67;;;5.30;;
13228;SDS011;6680;53.220;10.402;2022-11-20T05:50:29;8.43;;;5.20;;
13228;SDS011;6680;53.220;10.402;2022-11-20T05:52:57;9.50;;;5.70;;
13228;SDS011;6680;53.220;10.402;2022-11-20T05:55:24;8.77;;;5.53;;
13228;SDS011;6680;53.220;10.402;2022-11-20T05:57:51;8.27;;;6.00;;
13228;SDS011;6680;53.220;10.402;2022-11-20T06:00:19;9.33;;;6.10;;
13228;SDS011;6680;53.220;10.402;2022-11-20T06:02:45;7.03;;;5.20;;
13228;SDS011;6680;53.220;10.402;2022-11-20T06:05:14;11.80;;;7.20;;
13228;SDS011;6680;53.220;10.402;2022-11-20T06:07:40;9.57;;;6.03;;
13228;SDS011;6680;53.220;10.402;2022-11-20T06:10:07;9.10;;;6.23;;
13228;SDS011;6680;53.220;10.402;2022-11-20T06:12:34;8.20;;;5.87;;
13228;SDS011;6680;53.220;10.402;2022-11-20T06:15:01;8.63;;;6.20;;
13228;SDS011;6680;53.220;10.402;2022-11-20T06:17:28;7.67;;;6.73;;
13228;SDS011;6680;53.220;10.402;2022-11-20T06:19:55;10.60;;;6.47;;
13228;SDS011;6680;53.220;10.402;2022-11-20T06:22:23;10.43;;;6.77;;
13228;SDS011;6680;53.220;10.402;2022-11-20T06:24:50;12.60;;;7.30;;
13228;SDS011;6680;53.220;10.402;2022-11-20T06:27:16;10.83;;;7.10;;
13228;SDS011;6680;53.220;10.402;2022-11-20T06:29:43;11.83;;;7.27;;
13228;SDS011;6680;53.220;10.402;2022-11-20T06:32:10;9.93;;;6.53;;
13228;SDS011;6680;53.220;10.402;2022-11-20T06:34:37;10.07;;;6.37;;
13228;SDS011;6680;53.220;10.402;2022-11-20T06:37:03;12.00;;;6.40;;
13228;SDS011;6680;53.220;10.402;2022-11-20T06:39:31;10.07;;;6.93;;
13228;SDS011;6680;53.220;10.402;2022-11-20T06:41:58;11.23;;;6.50;;
13228;SDS011;6680;53.220;10.402;2022-11-20T06:44:25;9.90;;;6.53;;
13228;SDS011;6680;53.220;10.402;2022-11-20T06:46:52;10.33;;;7.90;;
13228;SDS011;6680;53.220;10.402;2022-11-20T06:49:19;12.57;;;7.03;;
13228;SDS011;6680;53.220;10.402;2022-11-20T06:51:45;10.00;;;7.30;;
13228;SDS011;6680;53.220;10.402;2022-11-20T06:54:12;10.70;;;7.27;;
13228;SDS011;6680;53.220;10.402;2022-11-20T06:56:40;15.40;;;7.20;;
13228;SDS011;6680;53.220;10.402;2022-11-20T06:59:07;11.77;;;6.83;;
13228;SDS011;6680;53.220;10.402;2022-11-20T07:01:33;12.20;;;7.60;;
13228;SDS011;6680;53.220;10.402;2022-11-20T07:04:00;12.07;;;7.27;;
13228;SDS011;6680;53.220;10.402;2022-11-20T07:06:28;10.43;;;6.90;;
13228;SDS011;6680;53.220;10.402;2022-11-20T07:08:54;13.37;;;7.93;;
13228;SDS011;6680;53.220;10.402;2022-11-20T07:11:21;12.57;;;7.13;;
13228;SDS011;6680;53.220;10.402;2022-11-20T07:13:49;10.53;;;7.33;;
13228;SDS011;6680;53.220;10.402;2022-11-20T07:16:16;9.30;;;7.53;;
13228;SDS011;6680;53.220;10.402;2022-11-20T07:18:43;9.23;;;6.03;;
13228;SDS011;6680;53.220;10.402;2022-11-20T07:21:10;12.20;;;6.80;;
13228;SDS011;6680;53.220;10.402;2022-11-20T07:23:36;10.73;;;7.00;;
13228;SDS011;6680;53.220;10.402;2022-11-20T07:26:04;10.57;;;7.73;;
13228;SDS011;6680;53.220;10.402;2022-11-20T07:28:31;9.50;;;7.10;;
13228;SDS011;6680;53.220;10.402;2022-11-20T07:30:59;11.87;;;7.97;;
13228;SDS011;6680;53.220;10.402;2022-11-20T07:33:26;11.60;;;7.20;;
13228;SDS011;6680;53.220;10.402;2022-11-20T07:35:53;11.03;;;7.90;;
13228;SDS011;6680;53.220;10.402;2022-11-20T07:38:19;11.03;;;7.43;;
13228;SDS011;6680;53.220;10.402;2022-11-20T07:40:46;12.97;;;7.40;;
13228;SDS011;6680;53.220;10.402;2022-11-20T07:43:13;10.50;;;7.67;;
13228;SDS011;6680;53.220;10.402;2022-11-20T07:45:40;11.33;;;7.20;;
13228;SDS011;6680;53.220;10.402;2022-11-20T07:48:08;12.23;;;7.93;;
13228;SDS011;6680;53.220;10.402;2022-11-20T07:50:35;13.80;;;8.87;;
13228;SDS011;6680;53.220;10.402;2022-11-20T07:53:02;12.70;;;7.80;;
13228;SDS011;6680;53.220;10.402;2022-11-20T07:55:29;10.83;;;7.93;;
13228;SDS011;6680;53.220;10.402;2022-11-20T07:57:57;10.47;;;7.63;;
13228;SDS011;6680;53.220;10.402;2022-11-20T08:00:24;10.63;;;7.10;;
13228;SDS011;6680;53.220;10.402;2022-11-20T08:02:51;9.40;;;6.83;;
13228;SDS011;6680;53.220;10.402;2022-11-20T08:05:20;11.60;;;7.27;;
13228;SDS011;6680;53.220;10.402;2022-11-20T08:07:47;12.90;;;8.07;;
13228;SDS011;6680;53.220;10.402;2022-11-20T08:10:14;12.07;;;7.17;;
13228;SDS011;6680;53.220;10.402;2022-11-20T08:12:45;13.20;;;7.97;;
13228;SDS011;6680;53.220;10.402;2022-11-20T08:15:29;12.00;;;6.97;;
13228;SDS011;6680;53.220;10.402;2022-11-20T08:18:00;11.07;;;8.37;;
13228;SDS011;6680;53.220;10.402;2022-11-20T08:20:30;15.70;;;8.43;;
13228;SDS011;6680;53.220;10.402;2022-11-20T08:22:59;9.57;;;7.47;;
13228;SDS011;6680;53.220;10.402;2022-11-20T08:25:27;10.30;;;6.93;;
13228;SDS011;6680;53.220;10.402;2022-11-20T08:27:56;13.33;;;7.13;;
13228;SDS011;6680;53.220;10.402;2022-11-20T08:30:24;9.97;;;6.17;;
13228;SDS011;6680;53.220;10.402;2022-11-20T08:32:51;10.40;;;6.10;;
13228;SDS011;6680;53.220;10.402;2022-11-20T08:35:18;15.07;;;8.63;;
13228;SDS011;6680;53.220;10.402;2022-11-20T08:37:47;14.83;;;8.10;;
13228;SDS011;6680;53.220;10.402;2022-11-20T08:40:14;10.00;;;6.37;;
13228;SDS011;6680;53.220;10.402;2022-11-20T08:42:45;10.13;;;6.90;;
13228;SDS011;6680;53.220;10.402;2022-11-20T08:45:13;9.67;;;7.10;;
13228;SDS011;6680;53.220;10.402;2022-11-20T08:47:40;11.20;;;7.23;;
13228;SDS011;6680;53.220;10.402;2022-11-20T08:50:07;11.00;;;6.90;;
13228;SDS011;6680;53.220;10.402;2022-11-20T08:52:35;10.43;;;7.20;;
13228;SDS011;6680;53.220;10.402;2022-11-20T08:55:03;12.97;;;7.17;;
13228;SDS011;6680;53.220;10.402;2022-11-20T08:57:31;10.57;;;6.47;;
13228;SDS011;6680;53.220;10.402;2022-11-20T08:59:58;9.00;;;6.10;;
13228;SDS011;6680;53.220;10.402;2022-11-20T09:02:25;12.37;;;6.60;;
13228;SDS011;6680;53.220;10.402;2022-11-20T09:04:52;12.03;;;7.03;;
13228;SDS011;6680;53.220;10.402;2022-11-20T09:07:19;9.47;;;6.73;;
13228;SDS011;6680;53.220;10.402;2022-11-20T09:09:46;8.50;;;5.77;;
13228;SDS011;6680;53.220;10.402;2022-11-20T09:12:14;10.80;;;7.37;;
13228;SDS011;6680;53.220;10.402;2022-11-20T09:14:41;10.73;;;6.77;;
13228;SDS011;6680;53.220;10.402;2022-11-20T09:17:09;9.17;;;6.63;;
13228;SDS011;6680;53.220;10.402;2022-11-20T09:19:38;10.93;;;6.90;;
13228;SDS011;6680;53.220;10.402;2022-11-20T09:22:05;10.23;;;6.87;;
13228;SDS011;6680;53.220;10.402;2022-11-20T09:24:31;8.67;;;6.47;;
13228;SDS011;6680;53.220;10.402;2022-11-20T09:27:00;10.97;;;6.40;;
13228;SDS011;6680;53.220;10.402;2022-11-20T09:29:29;7.23;;;6.07;;
13228;SDS011;6680;53.220;10.402;2022-11-20T09:31:56;9.90;;;6.70;;
13228;SDS011;6680;53.220;10.402;2022-11-20T09:34:22;7.33;;;5.60;;
13228;SDS011;6680;53.220;10.402;2022-11-20T09:36:49;7.03;;;5.03;;
13228;SDS011;6680;53.220;10.402;2022-11-20T09:39:16;6.83;;;4.77;;
13228;SDS011;6680;53.220;10.402;2022-11-20T09:41:47;9.53;;;6.00;;
13228;SDS011;6680;53.220;10.402;2022-11-20T09:44:35;6.00;;;4.53;;
13228;SDS011;6680;53.220;10.402;2022-11-20T09:47:16;6.03;;;4.57;;
13228;SDS011;6680;53.220;10.402;2022-11-20T09:49:58;10.43;;;5.60;;
13228;SDS011;6680;53.220;10.402;2022-11-20T09:52:37;7.03;;;5.37;;
13228;SDS011;6680;53.220;10.402;2022-11-20T09:55:10;6.73;;;4.80;;
13228;SDS011;6680;53.220;10.402;2022-11-20T09:57:39;7.80;;;6.00;;
13228;SDS011;6680;53.220;10.402;2022-11-20T10:00:11;7.87;;;5.57;;
13228;SDS011;6680;53.220;10.402;2022-11-20T10:02:41;7.33;;;5.43;;
13228;SDS011;6680;53.220;10.402;2022-11-20T10:05:12;9.07;;;5.00;;
13228;SDS011;6680;53.220;10.402;2022-11-20T10:07:44;7.37;;;5.20;;
13228;SDS011;6680;53.220;10.402;2022-11-20T10:10:21;7.60;;;5.47;;
13228;SDS011;6680;53.220;10.402;2022-11-20T10:13:00;9.70;;;5.87;;
13228;SDS011;6680;53.220;10.402;2022-11-20T10:15:38;8.90;;;5.10;;
13228;SDS011;6680;53.220;10.402;2022-11-20T10:18:17;11.43;;;6.33;;
13228;SDS011;6680;53.220;10.402;2022-11-20T10:20:58;7.60;;;5.43;;
13228;SDS011;6680;53.220;10.402;2022-11-20T10:23:37;6.90;;;5.53;;
13228;SDS011;6680;53.220;10.402;2022-11-20T10:26:21;8.97;;;5.40;;
13228;SDS011;6680;53.220;10.402;2022-11-20T10:28:55;11.13;;;7.73;;
13228;SDS011;6680;53.220;10.402;2022-11-20T10:31:30;11.77;;;6.33;;
13228;SDS011;6680;53.220;10.402;2022-11-20T10:33:59;9.67;;;6.60;;
13228;SDS011;6680;53.220;10.402;2022-11-20T10:36:30;9.80;;;6.60;;
13228;SDS011;6680;53.220;10.402;2022-11-20T10:39:03;10.30;;;6.83;;
13228;SDS011;6680;53.220;10.402;2022-11-20T10:41:39;10.27;;;6.27;;
13228;SDS011;6680;53.220;10.402;2022-11-20T10:44:09;5.90;;;4.80;;
13228;SDS011;6680;53.220;10.402;2022-11-20T10:46:43;8.30;;;5.83;;
13228;SDS011;6680;53.220;10.402;2022-11-20T10:49:11;6.30;;;5.13;;
13228;SDS011;6680;53.220;10.402;2022-11-20T10:51:43;9.57;;;7.10;;
13228;SDS011;6680;53.220;10.402;2022-11-20T10:54:19;12.73;;;9.03;;
13228;SDS011;6680;53.220;10.402;2022-11-20T10:56:54;5.87;;;4.80;;
13228;SDS011;6680;53.220;10.402;2022-11-20T10:59:38;8.77;;;5.80;;
13228;SDS011;6680;53.220;10.402;2022-11-20T11:02:16;7.90;;;5.77;;
13228;SDS011;6680;53.220;10.402;2022-11-20T11:04:45;9.20;;;7.77;;
13228;SDS011;6680;53.220;10.402;2022-11-20T11:07:14;9.30;;;5.57;;
13228;SDS011;6680;53.220;10.402;2022-11-20T11:09:44;6.60;;;4.93;;
13228;SDS011;6680;53.220;10.402;2022-11-20T11:12:14;9.13;;;5.33;;
13228;SDS011;6680;53.220;10.402;2022-11-20T11:14:42;8.73;;;5.43;;
13228;SDS011;6680;53.220;10.402;2022-11-20T11:17:22;8.27;;;5.77;;
13228;SDS011;6680;53.220;10.402;2022-11-20T11:19:59;5.37;;;4.77;;
13228;SDS011;6680;53.220;10.402;2022-11-20T11:22:27;10.30;;;6.40;;
13228;SDS011;6680;53.220;10.402;2022-11-20T11:24:55;7.37;;;6.13;;
13228;SDS011;6680;53.220;10.402;2022-11-20T11:27:22;6.77;;;5.43;;
13228;SDS011;6680;53.220;10.402;2022-11-20T11:29:49;6.73;;;4.60;;
13228;SDS011;6680;53.220;10.402;2022-11-20T11:32:17;5.63;;;4.13;;
13228;SDS011;6680;53.220;10.402;2022-11-20T11:34:58;9.57;;;5.97;;
13228;SDS011;6680;53.220;10.402;2022-11-20T11:37:25;6.87;;;4.77;;
13228;SDS011;6680;53.220;10.402;2022-11-20T11:40:00;4.67;;;4.13;;
13228;SDS011;6680;53.220;10.402;2022-11-20T11:42:28;5.40;;;4.10;;
13228;SDS011;6680;53.220;10.402;2022-11-20T11:44:55;7.77;;;4.70;;
13228;SDS011;6680;53.220;10.402;2022-11-20T11:47:33;6.90;;;4.80;;
13228;SDS011;6680;53.220;10.402;2022-11-20T11:50:16;5.07;;;4.23;;
13228;SDS011;6680;53.220;10.402;2022-11-20T11:52:46;6.73;;;4.43;;
13228;SDS011;6680;53.220;10.402;2022-11-20T11:55:25;5.13;;;3.87;;
13228;SDS011;6680;53.220;10.402;2022-11-20T11:57:57;5.23;;;4.73;;
13228;SDS011;6680;53.220;10.402;2022-11-20T12:00:32;5.33;;;4.10;;
13228;SDS011;6680;53.220;10.402;2022-11-20T12:03:04;5.97;;;4.70;;
13228;SDS011;6680;53.220;10.402;2022-11-20T12:05:42;5.63;;;4.20;;
13228;SDS011;6680;53.220;10.402;2022-11-20T12:08:13;5.10;;;4.00;;
13228;SDS011;6680;53.220;10.402;2022-11-20T12:10:45;7.60;;;4.40;;
13228;SDS011;6680;53.220;10.402;2022-11-20T12:13:21;6.00;;;4.50;;
13228;SDS011;6680;53.220;10.402;2022-11-20T12:16:00;6.20;;;4.50;;
13228;SDS011;6680;53.220;10.402;2022-11-20T12:18:29;6.03;;;4.20;;
13228;SDS011;6680;53.220;10.402;2022-11-20T12:21:01;6.67;;;4.77;;
13228;SDS011;6680;53.220;10.402;2022-11-20T12:23:39;6.40;;;4.17;;
13228;SDS011;6680;53.220;10.402;2022-11-20T12:26:14;8.67;;;5.17;;
13228;SDS011;6680;53.220;10.402;2022-11-20T12:29:02;7.63;;;4.50;;
13228;SDS011;6680;53.220;10.402;2022-11-20T12:31:40;7.57;;;4.97;;
13228;SDS011;6680;53.220;10.402;2022-11-20T12:34:28;6.90;;;3.97;;
13228;SDS011;6680;53.220;10.402;2022-11-20T12:37:10;5.40;;;4.50;;
13228;SDS011;6680;53.220;10.402;2022-11-20T12:39:47;5.00;;;3.83;;
13228;SDS011;6680;53.220;10.402;2022-11-20T12:42:31;5.77;;;4.10;;
13228;SDS011;6680;53.220;10.402;2022-11-20T12:45:34;5.30;;;3.50;;
13228;SDS011;6680;53.220;10.402;2022-11-20T12:48:26;5.67;;;3.90;;
13228;SDS011;6680;53.220;10.402;2022-11-20T12:51:24;4.73;;;3.70;;
13228;SDS011;6680;53.220;10.402;2022-11-20T12:57:00;4.03;;;3.57;;
13228;SDS011;6680;53.220;10.402;2022-11-20T12:59:34;4.97;;;3.50;;
13228;SDS011;6680;53.220;10.402;2022-11-20T13:02:18;4.27;;;3.83;;
13228;SDS011;6680;53.220;10.402;2022-11-20T13:04:55;4.73;;;3.83;;
13228;SDS011;6680;53.220;10.402;2022-11-20T13:07:32;4.47;;;3.90;;
13228;SDS011;6680;53.220;10.402;2022-11-20T13:10:02;5.90;;;3.90;;
13228;SDS011;6680;53.220;10.402;2022-11-20T13:12:33;4.07;;;3.67;;
13228;SDS011;6680;53.220;10.402;2022-11-20T13:15:05;7.20;;;3.90;;
13228;SDS011;6680;53.220;10.402;2022-11-20T13:17:45;5.50;;;4.53;;
13228;SDS011;6680;53.220;10.402;2022-11-20T13:20:18;4.20;;;3.60;;
13228;SDS011;6680;53.220;10.402;2022-11-20T13:22:46;4.30;;;3.90;;
13228;SDS011;6680;53.220;10.402;2022-11-20T13:25:24;5.33;;;3.73;;
13228;SDS011;6680;53.220;10.402;2022-11-20T13:27:53;4.23;;;3.83;;
13228;SDS011;6680;53.220;10.402;2022-11-20T13:30:21;4.83;;;3.73;;
13228;SDS011;6680;53.220;10.402;2022-11-20T13:32:50;5.27;;;3.90;;
13228;SDS011;6680;53.220;10.402;2022-11-20T13:35:25;4.87;;;3.90;;
13228;SDS011;6680;53.220;10.402;2022-11-20T13:38:00;7.20;;;3.63;;
13228;SDS011;6680;53.220;10.402;2022-11-20T13:40:34;4.17;;;3.40;;
13228;SDS011;6680;53.220;10.402;2022-11-20T13:43:16;3.50;;;3.20;;
13228;SDS011;6680;53.220;10.402;2022-11-20T13:45:54;3.97;;;3.57;;
13228;SDS011;6680;53.220;10.402;2022-11-20T13:48:26;4.03;;;3.40;;
13228;SDS011;6680;53.220;10.402;2022-11-20T13:51:02;3.83;;;3.40;;
13228;SDS011;6680;53.220;10.402;2022-11-20T13:53:45;3.50;;;3.20;;
13228;SDS011;6680;53.220;10.402;2022-11-20T13:56:34;3.60;;;3.27;;
13228;SDS011;6680;53.220;10.402;2022-11-20T13:59:10;3.90;;;3.30;;
13228;SDS011;6680;53.220;10.402;2022-11-20T14:01:46;3.80;;;3.40;;
13228;SDS011;6680;53.220;10.402;2022-11-20T14:04:14;5.80;;;3.03;;
13228;SDS011;6680;53.220;10.402;2022-11-20T14:06:46;3.43;;;3.13;;
13228;SDS011;6680;53.220;10.402;2022-11-20T14:09:24;4.67;;;3.17;;
13228;SDS011;6680;53.220;10.402;2022-11-20T14:11:53;3.10;;;2.80;;
13228;SDS011;6680;53.220;10.402;2022-11-20T14:14:21;4.13;;;3.73;;
13228;SDS011;6680;53.220;10.402;2022-11-20T14:16:48;3.60;;;3.30;;
13228;SDS011;6680;53.220;10.402;2022-11-20T14:19:27;3.63;;;3.33;;
13228;SDS011;6680;53.220;10.402;2022-11-20T14:22:06;6.80;;;3.27;;
13228;SDS011;6680;53.220;10.402;2022-11-20T14:24:35;4.13;;;3.27;;
13228;SDS011;6680;53.220;10.402;2022-11-20T14:27:03;2.90;;;2.70;;
13228;SDS011;6680;53.220;10.402;2022-11-20T14:29:32;4.87;;;4.07;;
13228;SDS011;6680;53.220;10.402;2022-11-20T14:32:00;4.10;;;3.67;;
13228;SDS011;6680;53.220;10.402;2022-11-20T14:34:29;3.40;;;2.73;;
13228;SDS011;6680;53.220;10.402;2022-11-20T14:36:58;3.33;;;3.00;;
13228;SDS011;6680;53.220;10.402;2022-11-20T14:39:29;3.40;;;3.10;;
13228;SDS011;6680;53.220;10.402;2022-11-20T14:41:58;4.40;;;3.37;;
13228;SDS011;6680;53.220;10.402;2022-11-20T14:44:27;3.40;;;3.10;;
13228;SDS011;6680;53.220;10.402;2022-11-20T14:46:57;5.97;;;3.00;;
13228;SDS011;6680;53.220;10.402;2022-11-20T14:49:25;4.97;;;3.00;;
13228;SDS011;6680;53.220;10.402;2022-11-20T14:51:58;3.20;;;2.87;;
13228;SDS011;6680;53.220;10.402;2022-11-20T14:54:25;3.70;;;3.10;;
13228;SDS011;6680;53.220;10.402;2022-11-20T14:56:53;3.73;;;3.43;;
13228;SDS011;6680;53.220;10.402;2022-11-20T14:59:22;4.97;;;4.13;;
13228;SDS011;6680;53.220;10.402;2022-11-20T15:01:55;5.40;;;4.50;;
13228;SDS011;6680;53.220;10.402;2022-11-20T15:04:24;4.13;;;3.23;;